sensor_id;sensor_type;location;lat;lon;timestamp;pressure;altitude;pressure_sealevel;temperature
29701;BMP280;57917;51.380;-0.176;2022-10-01T00:02:59;99707.59;;;16.03
29701;BMP280;57917;51.380;-0.176;2022-10-01T00:08:48;99705.19;;;15.98
29701;BMP280;57917;51.380;-0.176;2022-10-01T00:14:36;99719.41;;;16.02
29701;BMP280;57917;51.380;-0.176;2022-10-01T00:20:24;99720.41;;;15.98
29701;BMP280;57917;51.380;-0.176;2022-10-01T00:31:59;99711.16;;;15.95
29701;BMP280;57917;51.380;-0.176;2022-10-01T00:37:49;99744.53;;;15.77
29701;BMP280;57917;51.380;-0.176;2022-10-01T00:43:42;99742.63;;;15.66
29701;BMP280;57917;51.380;-0.176;2022-10-01T00:49:31;99748.31;;;15.76
29701;BMP280;57917;51.380;-0.176;2022-10-01T01:01:08;99760.53;;;15.65
29701;BMP280;57917;51.380;-0.176;2022-10-01T01:06:57;99763.06;;;15.50
29701;BMP280;57917;51.380;-0.176;2022-10-01T01:13:07;99765.16;;;15.44
29701;BMP280;57917;51.380;-0.176;2022-10-01T01:19:36;99780.56;;;15.39
29701;BMP280;57917;51.380;-0.176;2022-10-01T01:25:45;99769.28;;;15.54
29701;BMP280;57917;51.380;-0.176;2022-10-01T01:31:37;99798.94;;;15.52
29701;BMP280;57917;51.380;-0.176;2022-10-01T01:37:27;99798.28;;;15.55
29701;BMP280;57917;51.380;-0.176;2022-10-01T01:43:19;99809.97;;;15.63
29701;BMP280;57917;51.380;-0.176;2022-10-01T01:49:09;99824.72;;;15.48
29701;BMP280;57917;51.380;-0.176;2022-10-01T01:54:56;99822.94;;;15.52
29701;BMP280;57917;51.380;-0.176;2022-10-01T02:00:46;99835.63;;;15.55
29701;BMP280;57917;51.380;-0.176;2022-10-01T02:07:11;99823.84;;;15.56
29701;BMP280;57917;51.380;-0.176;2022-10-01T02:13:24;99831.78;;;15.32
29701;BMP280;57917;51.380;-0.176;2022-10-01T02:19:22;99836.19;;;15.28
29701;BMP280;57917;51.380;-0.176;2022-10-01T02:25:13;99830.09;;;15.28
29701;BMP280;57917;51.380;-0.176;2022-10-01T02:31:06;99834.13;;;15.13
29701;BMP280;57917;51.380;-0.176;2022-10-01T02:36:56;99836.28;;;14.99
29701;BMP280;57917;51.380;-0.176;2022-10-01T02:42:48;99834.41;;;15.00
29701;BMP280;57917;51.380;-0.176;2022-10-01T02:48:37;99828.41;;;15.03
29701;BMP280;57917;51.380;-0.176;2022-10-01T02:54:48;99838.19;;;14.99
29701;BMP280;57917;51.380;-0.176;2022-10-01T03:00:36;99848.22;;;14.93
29701;BMP280;57917;51.380;-0.176;2022-10-01T03:06:23;99849.09;;;15.06
29701;BMP280;57917;51.380;-0.176;2022-10-01T03:12:09;99865.47;;;14.67
29701;BMP280;57917;51.380;-0.176;2022-10-01T03:17:56;99880.41;;;14.88
29701;BMP280;57917;51.380;-0.176;2022-10-01T03:23:43;99887.25;;;14.69
29701;BMP280;57917;51.380;-0.176;2022-10-01T03:29:30;99896.50;;;14.71
29701;BMP280;57917;51.380;-0.176;2022-10-01T03:35:16;99899.75;;;14.39
29701;BMP280;57917;51.380;-0.176;2022-10-01T03:41:06;99907.88;;;14.51
29701;BMP280;57917;51.380;-0.176;2022-10-01T03:46:53;99924.84;;;14.29
29701;BMP280;57917;51.380;-0.176;2022-10-01T03:52:40;99934.66;;;14.37
29701;BMP280;57917;51.380;-0.176;2022-10-01T03:58:28;99952.88;;;14.35
29701;BMP280;57917;51.380;-0.176;2022-10-01T04:04:15;99954.56;;;14.40
29701;BMP280;57917;51.380;-0.176;2022-10-01T04:10:01;99960.25;;;14.30
29701;BMP280;57917;51.380;-0.176;2022-10-01T04:15:48;99972.28;;;14.36
29701;BMP280;57917;51.380;-0.176;2022-10-01T04:21:35;99968.53;;;14.37
29701;BMP280;57917;51.380;-0.176;2022-10-01T04:27:23;99985.28;;;14.20
29701;BMP280;57917;51.380;-0.176;2022-10-01T04:33:13;99992.63;;;14.32
29701;BMP280;57917;51.380;-0.176;2022-10-01T04:39:00;99982.16;;;14.27
29701;BMP280;57917;51.380;-0.176;2022-10-01T04:44:48;100000.06;;;14.18
29701;BMP280;57917;51.380;-0.176;2022-10-01T04:50:35;100007.25;;;14.17
29701;BMP280;57917;51.380;-0.176;2022-10-01T04:56:21;100017.88;;;14.17
29701;BMP280;57917;51.380;-0.176;2022-10-01T05:02:08;100033.84;;;14.26
29701;BMP280;57917;51.380;-0.176;2022-10-01T05:07:55;100050.16;;;14.16
29701;BMP280;57917;51.380;-0.176;2022-10-01T05:13:41;100051.06;;;14.20
29701;BMP280;57917;51.380;-0.176;2022-10-01T05:19:29;100053.28;;;14.01
29701;BMP280;57917;51.380;-0.176;2022-10-01T05:25:17;100069.06;;;14.06
29701;BMP280;57917;51.380;-0.176;2022-10-01T05:31:04;100075.81;;;14.12
29701;BMP280;57917;51.380;-0.176;2022-10-01T05:36:54;100085.34;;;14.21
29701;BMP280;57917;51.380;-0.176;2022-10-01T05:42:44;100101.34;;;14.21
29701;BMP280;57917;51.380;-0.176;2022-10-01T05:48:31;100117.41;;;14.08
29701;BMP280;57917;51.380;-0.176;2022-10-01T05:54:22;100116.19;;;13.88
29701;BMP280;57917;51.380;-0.176;2022-10-01T06:00:10;100118.66;;;13.93
29701;BMP280;57917;51.380;-0.176;2022-10-01T06:05:59;100142.59;;;13.85
29701;BMP280;57917;51.380;-0.176;2022-10-01T06:11:46;100142.16;;;14.00
29701;BMP280;57917;51.380;-0.176;2022-10-01T06:17:34;100150.78;;;14.14
29701;BMP280;57917;51.380;-0.176;2022-10-01T06:23:21;100160.66;;;14.05
29701;BMP280;57917;51.380;-0.176;2022-10-01T06:29:09;100174.09;;;14.00
29701;BMP280;57917;51.380;-0.176;2022-10-01T06:34:56;100167.75;;;14.18
29701;BMP280;57917;51.380;-0.176;2022-10-01T06:40:42;100171.81;;;14.24
29701;BMP280;57917;51.380;-0.176;2022-10-01T06:46:29;100186.69;;;14.25
29701;BMP280;57917;51.380;-0.176;2022-10-01T06:52:17;100197.16;;;14.21
29701;BMP280;57917;51.380;-0.176;2022-10-01T06:58:23;100208.47;;;14.44
29701;BMP280;57917;51.380;-0.176;2022-10-01T07:04:17;100213.34;;;14.59
29701;BMP280;57917;51.380;-0.176;2022-10-01T07:10:06;100220.06;;;14.57
29701;BMP280;57917;51.380;-0.176;2022-10-01T07:15:53;100221.34;;;14.76
29701;BMP280;57917;51.380;-0.176;2022-10-01T07:21:39;100238.69;;;15.16
29701;BMP280;57917;51.380;-0.176;2022-10-01T07:27:26;100235.28;;;15.53
29701;BMP280;57917;51.380;-0.176;2022-10-01T07:33:16;100251.91;;;16.67
29701;BMP280;57917;51.380;-0.176;2022-10-01T07:39:03;100232.41;;;17.55
29701;BMP280;57917;51.380;-0.176;2022-10-01T07:44:50;100236.50;;;18.13
29701;BMP280;57917;51.380;-0.176;2022-10-01T07:50:36;100243.66;;;18.76
29701;BMP280;57917;51.380;-0.176;2022-10-01T07:56:24;100249.13;;;19.23
29701;BMP280;57917;51.380;-0.176;2022-10-01T08:02:15;100245.19;;;19.05
29701;BMP280;57917;51.380;-0.176;2022-10-01T08:08:07;100273.69;;;19.09
29701;BMP280;57917;51.380;-0.176;2022-10-01T08:13:54;100270.38;;;18.45
29701;BMP280;57917;51.380;-0.176;2022-10-01T08:19:45;100285.09;;;18.51
29701;BMP280;57917;51.380;-0.176;2022-10-01T08:25:37;100285.97;;;18.55
29701;BMP280;57917;51.380;-0.176;2022-10-01T08:31:25;100299.66;;;18.77
29701;BMP280;57917;51.380;-0.176;2022-10-01T08:37:12;100308.97;;;18.68
29701;BMP280;57917;51.380;-0.176;2022-10-01T08:43:05;100317.84;;;18.84
29701;BMP280;57917;51.380;-0.176;2022-10-01T08:55:15;100333.41;;;19.06
29701;BMP280;57917;51.380;-0.176;2022-10-01T09:01:10;100336.34;;;19.01
29701;BMP280;57917;51.380;-0.176;2022-10-01T09:07:03;100339.00;;;19.44
29701;BMP280;57917;51.380;-0.176;2022-10-01T09:25:18;100353.06;;;19.84
29701;BMP280;57917;51.380;-0.176;2022-10-01T09:37:12;100381.47;;;19.70
29701;BMP280;57917;51.380;-0.176;2022-10-01T09:43:04;100388.31;;;19.83
29701;BMP280;57917;51.380;-0.176;2022-10-01T09:49:23;100399.91;;;20.02
29701;BMP280;57917;51.380;-0.176;2022-10-01T10:01:15;100410.84;;;20.44
29701;BMP280;57917;51.380;-0.176;2022-10-01T10:07:04;100413.31;;;20.33
29701;BMP280;57917;51.380;-0.176;2022-10-01T10:19:14;100406.34;;;19.82
29701;BMP280;57917;51.380;-0.176;2022-10-01T10:25:15;100411.09;;;20.20
29701;BMP280;57917;51.380;-0.176;2022-10-01T10:31:13;100420.41;;;20.41
29701;BMP280;57917;51.380;-0.176;2022-10-01T10:37:02;100424.56;;;20.73
29701;BMP280;57917;51.380;-0.176;2022-10-01T10:42:54;100418.66;;;20.83
29701;BMP280;57917;51.380;-0.176;2022-10-01T10:48:42;100425.94;;;20.83
29701;BMP280;57917;51.380;-0.176;2022-10-01T10:54:35;100437.38;;;20.61
29701;BMP280;57917;51.380;-0.176;2022-10-01T11:00:25;100463.91;;;20.62
29701;BMP280;57917;51.380;-0.176;2022-10-01T11:06:14;100461.88;;;20.75
29701;BMP280;57917;51.380;-0.176;2022-10-01T11:43:00;100501.31;;;19.74
29701;BMP280;57917;51.380;-0.176;2022-10-01T11:55:57;100522.44;;;19.48
29701;BMP280;57917;51.380;-0.176;2022-10-01T12:08:17;100532.69;;;19.31
29701;BMP280;57917;51.380;-0.176;2022-10-01T12:14:13;100537.03;;;19.35
29701;BMP280;57917;51.380;-0.176;2022-10-01T12:26:26;100530.75;;;20.14
29701;BMP280;57917;51.380;-0.176;2022-10-01T12:51:27;100543.66;;;20.08
29701;BMP280;57917;51.380;-0.176;2022-10-01T13:16:28;100589.50;;;20.00
29701;BMP280;57917;51.380;-0.176;2022-10-01T13:28:30;100575.66;;;20.13
29701;BMP280;57917;51.380;-0.176;2022-10-01T13:34:59;100574.47;;;20.42
29701;BMP280;57917;51.380;-0.176;2022-10-01T13:41:18;100570.28;;;20.44
29701;BMP280;57917;51.380;-0.176;2022-10-01T13:47:06;100576.88;;;20.31
29701;BMP280;57917;51.380;-0.176;2022-10-01T13:53:16;100588.84;;;20.34
29701;BMP280;57917;51.380;-0.176;2022-10-01T13:59:32;100597.44;;;20.24
29701;BMP280;57917;51.380;-0.176;2022-10-01T14:05:55;100610.81;;;20.08
29701;BMP280;57917;51.380;-0.176;2022-10-01T14:12:07;100614.44;;;20.00
29701;BMP280;57917;51.380;-0.176;2022-10-01T14:18:40;100600.41;;;20.07
29701;BMP280;57917;51.380;-0.176;2022-10-01T14:31:33;100622.56;;;20.31
29701;BMP280;57917;51.380;-0.176;2022-10-01T14:37:27;100617.03;;;20.24
29701;BMP280;57917;51.380;-0.176;2022-10-01T14:43:30;100611.97;;;20.07
29701;BMP280;57917;51.380;-0.176;2022-10-01T14:49:25;100622.34;;;19.93
29701;BMP280;57917;51.380;-0.176;2022-10-01T14:55:13;100621.69;;;19.84
29701;BMP280;57917;51.380;-0.176;2022-10-01T15:01:05;100630.09;;;19.83
29701;BMP280;57917;51.380;-0.176;2022-10-01T15:06:52;100629.38;;;19.86
29701;BMP280;57917;51.380;-0.176;2022-10-01T15:12:40;100627.13;;;19.72
29701;BMP280;57917;51.380;-0.176;2022-10-01T15:18:34;100625.22;;;19.61
29701;BMP280;57917;51.380;-0.176;2022-10-01T15:24:49;100629.72;;;19.45
29701;BMP280;57917;51.380;-0.176;2022-10-01T15:30:43;100628.38;;;19.51
29701;BMP280;57917;51.380;-0.176;2022-10-01T15:37:13;100634.53;;;19.51
29701;BMP280;57917;51.380;-0.176;2022-10-01T15:49:15;100656.91;;;19.43
29701;BMP280;57917;51.380;-0.176;2022-10-01T16:01:44;100662.41;;;19.11
29701;BMP280;57917;51.380;-0.176;2022-10-01T16:07:37;100686.34;;;19.16
29701;BMP280;57917;51.380;-0.176;2022-10-01T16:13:34;100672.41;;;18.77
29701;BMP280;57917;51.380;-0.176;2022-10-01T16:19:30;100708.06;;;18.78
29701;BMP280;57917;51.380;-0.176;2022-10-01T16:31:12;100692.66;;;18.75
29701;BMP280;57917;51.380;-0.176;2022-10-01T16:36:59;100708.75;;;18.75
29701;BMP280;57917;51.380;-0.176;2022-10-01T16:42:46;100722.84;;;18.51
29701;BMP280;57917;51.380;-0.176;2022-10-01T16:48:35;100732.31;;;18.49
29701;BMP280;57917;51.380;-0.176;2022-10-01T16:54:24;100725.53;;;18.51
29701;BMP280;57917;51.380;-0.176;2022-10-01T17:00:13;100736.50;;;18.38
29701;BMP280;57917;51.380;-0.176;2022-10-01T17:06:01;100757.44;;;18.24
29701;BMP280;57917;51.380;-0.176;2022-10-01T17:11:49;100761.88;;;18.20
29701;BMP280;57917;51.380;-0.176;2022-10-01T17:17:35;100785.75;;;18.33
29701;BMP280;57917;51.380;-0.176;2022-10-01T17:23:22;100779.41;;;18.38
29701;BMP280;57917;51.380;-0.176;2022-10-01T17:29:12;100801.19;;;18.07
29701;BMP280;57917;51.380;-0.176;2022-10-01T17:35:14;100783.44;;;17.94
29701;BMP280;57917;51.380;-0.176;2022-10-01T17:41:02;100821.66;;;18.12
29701;BMP280;57917;51.380;-0.176;2022-10-01T17:46:49;100827.41;;;17.93
29701;BMP280;57917;51.380;-0.176;2022-10-01T17:52:36;100824.50;;;17.78
29701;BMP280;57917;51.380;-0.176;2022-10-01T17:58:23;100839.66;;;17.65
29701;BMP280;57917;51.380;-0.176;2022-10-01T18:04:13;100848.34;;;17.62
29701;BMP280;57917;51.380;-0.176;2022-10-01T18:10:05;100872.16;;;17.47
29701;BMP280;57917;51.380;-0.176;2022-10-01T18:15:58;100865.88;;;17.34
29701;BMP280;57917;51.380;-0.176;2022-10-01T18:21:47;100840.53;;;17.40
29701;BMP280;57917;51.380;-0.176;2022-10-01T18:27:34;100886.03;;;17.32
29701;BMP280;57917;51.380;-0.176;2022-10-01T18:33:21;100893.59;;;17.21
29701;BMP280;57917;51.380;-0.176;2022-10-01T18:39:32;100898.16;;;17.29
29701;BMP280;57917;51.380;-0.176;2022-10-01T18:57:59;100939.22;;;16.91
29701;BMP280;57917;51.380;-0.176;2022-10-01T19:04:30;100935.59;;;17.04
29701;BMP280;57917;51.380;-0.176;2022-10-01T19:40:56;100953.53;;;16.95
29701;BMP280;57917;51.380;-0.176;2022-10-01T19:46:45;100988.59;;;16.85
29701;BMP280;57917;51.380;-0.176;2022-10-01T19:52:35;101003.06;;;16.84
29701;BMP280;57917;51.380;-0.176;2022-10-01T19:58:24;101011.69;;;16.81
29701;BMP280;57917;51.380;-0.176;2022-10-01T20:10:31;101021.31;;;16.99
29701;BMP280;57917;51.380;-0.176;2022-10-01T20:16:40;101019.72;;;16.81
29701;BMP280;57917;51.380;-0.176;2022-10-01T20:34:58;101039.66;;;16.75
29701;BMP280;57917;51.380;-0.176;2022-10-01T20:41:02;101046.63;;;16.84
29701;BMP280;57917;51.380;-0.176;2022-10-01T20:46:54;101068.56;;;16.64
29701;BMP280;57917;51.380;-0.176;2022-10-01T20:52:54;101078.09;;;16.57
29701;BMP280;57917;51.380;-0.176;2022-10-01T20:58:49;101081.63;;;16.66
29701;BMP280;57917;51.380;-0.176;2022-10-01T21:04:42;101118.94;;;16.49
29701;BMP280;57917;51.380;-0.176;2022-10-01T21:10:55;101119.91;;;16.53
29701;BMP280;57917;51.380;-0.176;2022-10-01T21:41:50;101119.66;;;16.41
29701;BMP280;57917;51.380;-0.176;2022-10-01T21:59:46;101136.31;;;16.60
29701;BMP280;57917;51.380;-0.176;2022-10-01T22:05:55;101144.94;;;16.57
29701;BMP280;57917;51.380;-0.176;2022-10-01T22:11:50;101147.59;;;16.57
29701;BMP280;57917;51.380;-0.176;2022-10-01T22:17:38;101158.72;;;16.50
29701;BMP280;57917;51.380;-0.176;2022-10-01T22:23:26;101181.25;;;16.58
29701;BMP280;57917;51.380;-0.176;2022-10-01T22:29:18;101179.91;;;16.69
29701;BMP280;57917;51.380;-0.176;2022-10-01T22:35:11;101199.25;;;16.66
29701;BMP280;57917;51.380;-0.176;2022-10-01T22:59:22;101236.31;;;16.23
29701;BMP280;57917;51.380;-0.176;2022-10-01T23:11:54;101234.28;;;15.93
29701;BMP280;57917;51.380;-0.176;2022-10-01T23:23:58;101241.09;;;15.85
29701;BMP280;57917;51.380;-0.176;2022-10-01T23:30:12;101247.63;;;15.79
29701;BMP280;57917;51.380;-0.176;2022-10-01T23:48:20;101233.88;;;15.59
29701;BMP280;57917;51.380;-0.176;2022-10-01T23:54:14;101246.13;;;15.46
